CYPY

Fort Chipewyan Airport

Fort Chipewyan, Alberta, Canada
METAR CYPY 190334Z AUTO 07007KT 9SM SCT016 M08/M09 A2922 RMK SLP914
Observed Flight Rules
Jan-19 @ 03:34 UTC (10 minutes ago) Visual Flight Rules
Wind Visibility Clouds
70° at 7 knots 9 miles
  • Scattered at 1,600' AGL
Temperatures Readings
Current -8°C / 18°F
Dewpoint -9°C / 16°F
Humidity 93%
Altimeter 29.22" Hg
Pressure 991.4 hPa
Elevation 232
METAR CYPY 190334Z AUTO 07007KT 9SM SCT016 M08/M09 A2922 RMK SLP914
Observed Flight Rules
Jan-19 @ 03:34 UTC
(10 minutes ago)
VFR
Wind Visibility
70° at 7 knots 9 miles
Clouds
  • Scattered at 1,600' AGL
Temperature Dewpoint
-8°C / 18°F -9°C / 16°F
Humidity Altimeter Pressure
93% 29.22" Hg 991.4 hPa